sensor_id;sensor_type;location;lat;lon;timestamp;noise_LAeq;noise_LA_min;noise_LA_max;noise_LA01;noise_LA95
76100;Laerm;64828;49.956;8.636;2024-02-15T00:00:06;84.34;77.30;86.98;;
76100;Laerm;64828;49.956;8.636;2024-02-15T00:00:23;84.31;78.92;86.69;;
76100;Laerm;64828;49.956;8.636;2024-02-15T00:00:41;84.39;80.09;86.85;;
76100;Laerm;64828;49.956;8.636;2024-02-15T00:00:58;84.25;78.82;87.15;;
76100;Laerm;64828;49.956;8.636;2024-02-15T00:01:15;84.40;79.66;86.79;;
76100;Laerm;64828;49.956;8.636;2024-02-15T00:01:30;83.55;75.14;86.62;;
76100;Laerm;64828;49.956;8.636;2024-02-15T00:01:46;84.03;75.89;86.66;;
76100;Laerm;64828;49.956;8.636;2024-02-15T00:02:02;83.26;74.96;86.65;;
76100;Laerm;64828;49.956;8.636;2024-02-15T00:02:17;83.25;74.95;86.63;;
76100;Laerm;64828;49.956;8.636;2024-02-15T00:02:33;83.17;75.71;86.84;;
76100;Laerm;64828;49.956;8.636;2024-02-15T00:02:48;83.97;75.61;86.35;;
76100;Laerm;64828;49.956;8.636;2024-02-15T00:03:05;84.14;77.63;86.77;;
76100;Laerm;64828;49.956;8.636;2024-02-15T00:03:21;83.73;75.48;86.45;;
76100;Laerm;64828;49.956;8.636;2024-02-15T00:03:37;83.27;71.97;86.78;;
76100;Laerm;64828;49.956;8.636;2024-02-15T00:03:53;80.06;64.63;85.61;;
76100;Laerm;64828;49.956;8.636;2024-02-15T00:04:08;75.73;32.44;85.01;;
76100;Laerm;64828;49.956;8.636;2024-02-15T00:04:26;80.20;71.87;85.51;;
76100;Laerm;64828;49.956;8.636;2024-02-15T00:04:41;81.11;54.59;85.15;;
76100;Laerm;64828;49.956;8.636;2024-02-15T00:04:58;82.11;75.10;85.70;;
76100;Laerm;64828;49.956;8.636;2024-02-15T00:05:14;81.34;75.36;85.29;;
76100;Laerm;64828;49.956;8.636;2024-02-15T00:05:31;81.39;75.41;85.24;;
76100;Laerm;64828;49.956;8.636;2024-02-15T00:05:47;80.35;75.20;85.26;;
76100;Laerm;64828;49.956;8.636;2024-02-15T00:06:03;75.75;37.13;79.31;;
76100;Laerm;64828;49.956;8.636;2024-02-15T00:06:19;67.16;37.02;77.73;;
76100;Laerm;64828;49.956;8.636;2024-02-15T00:06:35;55.97;34.25;72.05;;
76100;Laerm;64828;49.956;8.636;2024-02-15T00:06:51;67.21;43.08;73.75;;
76100;Laerm;64828;49.956;8.636;2024-02-15T00:07:06;48.27;38.37;57.66;;
76100;Laerm;64828;49.956;8.636;2024-02-15T00:07:22;49.01;38.79;65.11;;
76100;Laerm;64828;49.956;8.636;2024-02-15T00:07:39;67.68;36.88;73.87;;
76100;Laerm;64828;49.956;8.636;2024-02-15T00:07:54;70.40;54.93;74.08;;
76100;Laerm;64828;49.956;8.636;2024-02-15T00:08:10;66.50;54.65;76.09;;
76100;Laerm;64828;49.956;8.636;2024-02-15T00:08:25;71.90;44.21;78.64;;
76100;Laerm;64828;49.956;8.636;2024-02-15T00:08:42;44.83;38.55;48.87;;
76100;Laerm;64828;49.956;8.636;2024-02-15T00:08:57;65.74;39.49;72.89;;
76100;Laerm;64828;49.956;8.636;2024-02-15T00:09:13;71.66;55.05;77.35;;
76100;Laerm;64828;49.956;8.636;2024-02-15T00:09:28;72.40;55.49;77.72;;
76100;Laerm;64828;49.956;8.636;2024-02-15T00:09:44;70.87;54.38;77.84;;
76100;Laerm;64828;49.956;8.636;2024-02-15T00:10:00;74.00;61.15;78.49;;
76100;Laerm;64828;49.956;8.636;2024-02-15T00:10:15;74.08;55.13;77.95;;
76100;Laerm;64828;49.956;8.636;2024-02-15T00:10:31;68.52;42.50;74.00;;
76100;Laerm;64828;49.956;8.636;2024-02-15T00:10:47;71.38;54.86;75.99;;
76100;Laerm;64828;49.956;8.636;2024-02-15T00:11:03;75.29;57.87;79.38;;
76100;Laerm;64828;49.956;8.636;2024-02-15T00:11:18;76.56;71.61;79.42;;
76100;Laerm;64828;49.956;8.636;2024-02-15T00:11:34;73.66;67.00;77.49;;
76100;Laerm;64828;49.956;8.636;2024-02-15T00:11:50;71.18;56.48;73.92;;
76100;Laerm;64828;49.956;8.636;2024-02-15T00:12:06;73.02;61.12;76.19;;
76100;Laerm;64828;49.956;8.636;2024-02-15T00:12:21;72.21;65.08;77.39;;
76100;Laerm;64828;49.956;8.636;2024-02-15T00:12:37;72.47;57.46;76.77;;
76100;Laerm;64828;49.956;8.636;2024-02-15T00:12:52;72.19;56.27;76.36;;
76100;Laerm;64828;49.956;8.636;2024-02-15T00:13:08;66.92;54.92;72.85;;
76100;Laerm;64828;49.956;8.636;2024-02-15T00:13:24;69.97;55.23;77.25;;
76100;Laerm;64828;49.956;8.636;2024-02-15T00:13:40;71.55;60.69;73.79;;
76100;Laerm;64828;49.956;8.636;2024-02-15T00:13:56;77.53;70.76;79.83;;
76100;Laerm;64828;49.956;8.636;2024-02-15T00:14:12;77.58;64.40;80.11;;
76100;Laerm;64828;49.956;8.636;2024-02-15T00:14:28;79.09;66.01;81.62;;
76100;Laerm;64828;49.956;8.636;2024-02-15T00:14:43;80.52;75.39;83.80;;
76100;Laerm;64828;49.956;8.636;2024-02-15T00:14:59;80.06;76.86;84.89;;
76100;Laerm;64828;49.956;8.636;2024-02-15T00:15:15;78.59;76.69;80.89;;
76100;Laerm;64828;49.956;8.636;2024-02-15T00:15:30;78.99;76.74;82.54;;
76100;Laerm;64828;49.956;8.636;2024-02-15T00:15:46;79.64;77.78;82.38;;
76100;Laerm;64828;49.956;8.636;2024-02-15T00:16:05;78.59;76.74;81.05;;
76100;Laerm;64828;49.956;8.636;2024-02-15T00:16:21;76.65;72.51;79.22;;
76100;Laerm;64828;49.956;8.636;2024-02-15T00:16:37;78.34;72.73;80.31;;
76100;Laerm;64828;49.956;8.636;2024-02-15T00:16:52;75.71;70.69;79.09;;
76100;Laerm;64828;49.956;8.636;2024-02-15T00:17:08;78.30;65.63;83.24;;
76100;Laerm;64828;49.956;8.636;2024-02-15T00:17:27;83.30;75.89;86.84;;
76100;Laerm;64828;49.956;8.636;2024-02-15T00:17:44;84.14;76.65;87.08;;
76100;Laerm;64828;49.956;8.636;2024-02-15T00:18:02;82.59;75.48;86.10;;
76100;Laerm;64828;49.956;8.636;2024-02-15T00:18:18;81.81;75.05;85.88;;
76100;Laerm;64828;49.956;8.636;2024-02-15T00:18:34;80.70;75.22;85.12;;
76100;Laerm;64828;49.956;8.636;2024-02-15T00:18:49;82.68;75.11;86.60;;
76100;Laerm;64828;49.956;8.636;2024-02-15T00:19:05;83.43;76.26;86.55;;
76100;Laerm;64828;49.956;8.636;2024-02-15T00:19:22;83.11;75.35;87.18;;
76100;Laerm;64828;49.956;8.636;2024-02-15T00:19:38;82.27;75.17;85.71;;
76100;Laerm;64828;49.956;8.636;2024-02-15T00:19:57;82.19;75.03;86.20;;
76100;Laerm;64828;49.956;8.636;2024-02-15T00:20:13;80.22;75.16;84.56;;
76100;Laerm;64828;49.956;8.636;2024-02-15T00:20:28;80.68;74.98;83.96;;
76100;Laerm;64828;49.956;8.636;2024-02-15T00:20:45;80.32;75.75;83.89;;
76100;Laerm;64828;49.956;8.636;2024-02-15T00:21:00;77.93;65.04;82.08;;
76100;Laerm;64828;49.956;8.636;2024-02-15T00:21:16;78.67;76.12;81.29;;
76100;Laerm;64828;49.956;8.636;2024-02-15T00:21:31;80.09;75.75;84.03;;
76100;Laerm;64828;49.956;8.636;2024-02-15T00:21:47;80.86;75.81;84.35;;
76100;Laerm;64828;49.956;8.636;2024-02-15T00:22:03;77.87;73.24;81.08;;
76100;Laerm;64828;49.956;8.636;2024-02-15T00:22:20;77.99;75.65;80.73;;
76100;Laerm;64828;49.956;8.636;2024-02-15T00:22:37;79.54;77.52;83.65;;
76100;Laerm;64828;49.956;8.636;2024-02-15T00:22:52;78.93;73.72;83.70;;
76100;Laerm;64828;49.956;8.636;2024-02-15T00:23:08;78.26;71.41;82.09;;
76100;Laerm;64828;49.956;8.636;2024-02-15T00:23:23;80.87;75.47;84.74;;
76100;Laerm;64828;49.956;8.636;2024-02-15T00:23:41;82.33;74.63;86.05;;
76100;Laerm;64828;49.956;8.636;2024-02-15T00:23:57;81.71;75.38;85.99;;
76100;Laerm;64828;49.956;8.636;2024-02-15T00:24:15;82.47;75.44;86.56;;
76100;Laerm;64828;49.956;8.636;2024-02-15T00:24:30;82.92;74.90;87.06;;
76100;Laerm;64828;49.956;8.636;2024-02-15T00:24:46;82.02;75.31;86.25;;
76100;Laerm;64828;49.956;8.636;2024-02-15T00:25:02;82.02;75.41;86.52;;
76100;Laerm;64828;49.956;8.636;2024-02-15T00:25:18;81.90;75.13;85.78;;
76100;Laerm;64828;49.956;8.636;2024-02-15T00:25:35;80.29;71.89;84.17;;
76100;Laerm;64828;49.956;8.636;2024-02-15T00:25:51;77.39;69.05;81.07;;
76100;Laerm;64828;49.956;8.636;2024-02-15T00:26:06;78.29;66.82;83.82;;
76100;Laerm;64828;49.956;8.636;2024-02-15T00:26:22;76.46;66.39;79.75;;
76100;Laerm;64828;49.956;8.636;2024-02-15T00:26:38;76.73;46.24;79.83;;
76100;Laerm;64828;49.956;8.636;2024-02-15T00:26:54;77.77;70.30;81.35;;
76100;Laerm;64828;49.956;8.636;2024-02-15T00:27:09;77.12;55.39;81.12;;
76100;Laerm;64828;49.956;8.636;2024-02-15T00:27:26;78.27;75.51;79.84;;
76100;Laerm;64828;49.956;8.636;2024-02-15T00:27:41;78.60;73.93;82.26;;
76100;Laerm;64828;49.956;8.636;2024-02-15T00:27:58;76.53;70.98;80.19;;
76100;Laerm;64828;49.956;8.636;2024-02-15T00:28:15;77.03;54.67;80.25;;
76100;Laerm;64828;49.956;8.636;2024-02-15T00:28:31;77.84;72.12;79.98;;
76100;Laerm;64828;49.956;8.636;2024-02-15T00:28:49;75.26;51.44;79.13;;
76100;Laerm;64828;49.956;8.636;2024-02-15T00:29:04;72.99;67.40;75.89;;
76100;Laerm;64828;49.956;8.636;2024-02-15T00:29:20;70.77;40.76;74.47;;
76100;Laerm;64828;49.956;8.636;2024-02-15T00:29:36;72.45;55.52;75.68;;
76100;Laerm;64828;49.956;8.636;2024-02-15T00:29:51;68.20;55.26;72.92;;
76100;Laerm;64828;49.956;8.636;2024-02-15T00:30:08;69.03;43.13;73.97;;
76100;Laerm;64828;49.956;8.636;2024-02-15T00:30:24;64.91;52.38;72.97;;
76100;Laerm;64828;49.956;8.636;2024-02-15T00:30:39;73.54;46.75;78.51;;
76100;Laerm;64828;49.956;8.636;2024-02-15T00:30:55;61.44;36.94;73.56;;
76100;Laerm;64828;49.956;8.636;2024-02-15T00:31:11;72.52;54.88;76.23;;
76100;Laerm;64828;49.956;8.636;2024-02-15T00:31:26;68.30;41.22;73.52;;
76100;Laerm;64828;49.956;8.636;2024-02-15T00:31:42;67.92;46.13;73.54;;
76100;Laerm;64828;49.956;8.636;2024-02-15T00:31:58;70.15;43.22;77.25;;
76100;Laerm;64828;49.956;8.636;2024-02-15T00:32:13;69.63;43.76;73.97;;
76100;Laerm;64828;49.956;8.636;2024-02-15T00:32:29;69.96;53.12;74.54;;
76100;Laerm;64828;49.956;8.636;2024-02-15T00:32:45;68.02;45.14;73.65;;
76100;Laerm;64828;49.956;8.636;2024-02-15T00:33:01;74.35;54.59;78.90;;
76100;Laerm;64828;49.956;8.636;2024-02-15T00:33:18;60.12;38.36;73.21;;
76100;Laerm;64828;49.956;8.636;2024-02-15T00:33:34;70.41;39.88;74.71;;
76100;Laerm;64828;49.956;8.636;2024-02-15T00:33:52;64.88;43.30;73.09;;
76100;Laerm;64828;49.956;8.636;2024-02-15T00:34:07;69.37;50.96;73.92;;
76100;Laerm;64828;49.956;8.636;2024-02-15T00:34:24;73.15;55.53;78.27;;
76100;Laerm;64828;49.956;8.636;2024-02-15T00:34:41;73.08;57.46;77.83;;
76100;Laerm;64828;49.956;8.636;2024-02-15T00:34:57;69.12;55.00;74.98;;
76100;Laerm;64828;49.956;8.636;2024-02-15T00:35:12;67.13;54.89;73.04;;
76100;Laerm;64828;49.956;8.636;2024-02-15T00:35:28;65.60;54.27;72.67;;
76100;Laerm;64828;49.956;8.636;2024-02-15T00:35:44;68.95;55.74;72.95;;
76100;Laerm;64828;49.956;8.636;2024-02-15T00:35:59;70.32;44.86;75.40;;
76100;Laerm;64828;49.956;8.636;2024-02-15T00:36:17;73.16;55.98;78.17;;
76100;Laerm;64828;49.956;8.636;2024-02-15T00:36:33;71.29;46.03;78.19;;
76100;Laerm;64828;49.956;8.636;2024-02-15T00:36:48;72.59;55.67;78.95;;
76100;Laerm;64828;49.956;8.636;2024-02-15T00:37:05;72.37;55.50;77.66;;
76100;Laerm;64828;49.956;8.636;2024-02-15T00:37:20;72.51;53.09;76.29;;
76100;Laerm;64828;49.956;8.636;2024-02-15T00:37:36;69.76;54.99;74.08;;
76100;Laerm;64828;49.956;8.636;2024-02-15T00:37:52;60.17;43.32;71.45;;
76100;Laerm;64828;49.956;8.636;2024-02-15T00:38:07;57.52;43.29;70.98;;
76100;Laerm;64828;49.956;8.636;2024-02-15T00:38:23;63.76;44.12;73.21;;
76100;Laerm;64828;49.956;8.636;2024-02-15T00:38:39;66.33;55.34;72.87;;
76100;Laerm;64828;49.956;8.636;2024-02-15T00:38:54;72.47;65.72;75.27;;
76100;Laerm;64828;49.956;8.636;2024-02-15T00:39:11;72.96;57.15;76.36;;
76100;Laerm;64828;49.956;8.636;2024-02-15T00:39:29;71.62;55.52;74.22;;
76100;Laerm;64828;49.956;8.636;2024-02-15T00:39:44;71.58;60.66;74.91;;
76100;Laerm;64828;49.956;8.636;2024-02-15T00:40:00;67.10;55.11;73.22;;
76100;Laerm;64828;49.956;8.636;2024-02-15T00:40:19;64.92;45.18;73.19;;
76100;Laerm;64828;49.956;8.636;2024-02-15T00:40:36;57.63;37.20;72.16;;
76100;Laerm;64828;49.956;8.636;2024-02-15T00:40:51;63.85;45.13;72.19;;
76100;Laerm;64828;49.956;8.636;2024-02-15T00:41:08;69.21;38.10;77.98;;
76100;Laerm;64828;49.956;8.636;2024-02-15T00:41:24;71.40;36.10;77.66;;
76100;Laerm;64828;49.956;8.636;2024-02-15T00:41:40;75.30;56.72;79.25;;
76100;Laerm;64828;49.956;8.636;2024-02-15T00:41:57;66.10;53.65;73.41;;
76100;Laerm;64828;49.956;8.636;2024-02-15T00:42:15;59.74;54.48;71.38;;
76100;Laerm;64828;49.956;8.636;2024-02-15T00:42:31;60.42;50.76;71.66;;
76100;Laerm;64828;49.956;8.636;2024-02-15T00:42:49;58.82;42.84;72.45;;
76100;Laerm;64828;49.956;8.636;2024-02-15T00:43:05;67.89;54.80;73.50;;
76100;Laerm;64828;49.956;8.636;2024-02-15T00:43:20;62.24;51.19;72.28;;
76100;Laerm;64828;49.956;8.636;2024-02-15T00:43:36;62.15;38.98;72.12;;
76100;Laerm;64828;49.956;8.636;2024-02-15T00:43:52;42.29;36.91;46.92;;
76100;Laerm;64828;49.956;8.636;2024-02-15T00:44:09;43.07;35.43;48.13;;
76100;Laerm;64828;49.956;8.636;2024-02-15T00:44:27;41.68;36.87;46.71;;
76100;Laerm;64828;49.956;8.636;2024-02-15T00:44:42;40.32;35.92;45.91;;
76100;Laerm;64828;49.956;8.636;2024-02-15T00:44:58;41.26;35.87;48.43;;
76100;Laerm;64828;49.956;8.636;2024-02-15T00:45:14;42.53;36.20;47.32;;
76100;Laerm;64828;49.956;8.636;2024-02-15T00:45:29;52.11;39.57;66.21;;
76100;Laerm;64828;49.956;8.636;2024-02-15T00:45:45;51.82;42.11;60.42;;
76100;Laerm;64828;49.956;8.636;2024-02-15T00:46:01;69.29;42.11;74.07;;
76100;Laerm;64828;49.956;8.636;2024-02-15T00:46:16;72.67;54.83;77.14;;
76100;Laerm;64828;49.956;8.636;2024-02-15T00:46:32;70.15;55.72;73.96;;
76100;Laerm;64828;49.956;8.636;2024-02-15T00:46:48;70.61;55.97;73.86;;
76100;Laerm;64828;49.956;8.636;2024-02-15T00:47:03;59.97;45.45;71.67;;
76100;Laerm;64828;49.956;8.636;2024-02-15T00:47:20;60.48;44.19;72.21;;
76100;Laerm;64828;49.956;8.636;2024-02-15T00:47:37;58.71;43.16;71.37;;
76100;Laerm;64828;49.956;8.636;2024-02-15T00:47:53;62.61;45.49;72.23;;
76100;Laerm;64828;49.956;8.636;2024-02-15T00:48:09;64.70;43.10;72.91;;
76100;Laerm;64828;49.956;8.636;2024-02-15T00:48:25;51.45;41.26;57.82;;
76100;Laerm;64828;49.956;8.636;2024-02-15T00:48:43;49.08;41.76;56.87;;
76100;Laerm;64828;49.956;8.636;2024-02-15T00:48:59;46.00;41.31;48.80;;
76100;Laerm;64828;49.956;8.636;2024-02-15T00:49:15;48.83;38.95;58.18;;
76100;Laerm;64828;49.956;8.636;2024-02-15T00:49:31;56.43;41.20;65.03;;
76100;Laerm;64828;49.956;8.636;2024-02-15T00:49:47;61.83;51.82;72.91;;
76100;Laerm;64828;49.956;8.636;2024-02-15T00:50:03;61.21;52.24;72.52;;
76100;Laerm;64828;49.956;8.636;2024-02-15T00:50:19;52.29;40.24;60.57;;
76100;Laerm;64828;49.956;8.636;2024-02-15T00:50:35;58.04;36.24;71.31;;
76100;Laerm;64828;49.956;8.636;2024-02-15T00:50:50;55.05;41.85;61.13;;
76100;Laerm;64828;49.956;8.636;2024-02-15T00:51:06;45.99;39.46;48.86;;
76100;Laerm;64828;49.956;8.636;2024-02-15T00:51:22;51.83;37.24;64.68;;
76100;Laerm;64828;49.956;8.636;2024-02-15T00:51:37;67.62;36.69;73.75;;
76100;Laerm;64828;49.956;8.636;2024-02-15T00:51:53;50.00;37.24;58.03;;
76100;Laerm;64828;49.956;8.636;2024-02-15T00:52:09;59.88;53.10;71.50;;
76100;Laerm;64828;49.956;8.636;2024-02-15T00:52:24;52.27;40.64;58.40;;
76100;Laerm;64828;49.956;8.636;2024-02-15T00:52:41;64.71;39.28;73.50;;
76100;Laerm;64828;49.956;8.636;2024-02-15T00:52:56;62.55;43.61;72.54;;
76100;Laerm;64828;49.956;8.636;2024-02-15T00:53:12;60.31;41.22;71.72;;
76100;Laerm;64828;49.956;8.636;2024-02-15T00:53:27;61.83;43.25;72.58;;
76100;Laerm;64828;49.956;8.636;2024-02-15T00:53:43;66.20;44.20;73.56;;
76100;Laerm;64828;49.956;8.636;2024-02-15T00:54:00;58.59;42.02;71.39;;
76100;Laerm;64828;49.956;8.636;2024-02-15T00:54:15;63.24;43.98;74.08;;
76100;Laerm;64828;49.956;8.636;2024-02-15T00:54:31;57.39;43.34;71.35;;
76100;Laerm;64828;49.956;8.636;2024-02-15T00:54:47;63.17;52.53;72.90;;
76100;Laerm;64828;49.956;8.636;2024-02-15T00:55:03;69.45;52.30;74.13;;
76100;Laerm;64828;49.956;8.636;2024-02-15T00:55:18;74.34;55.90;78.72;;
76100;Laerm;64828;49.956;8.636;2024-02-15T00:55:35;69.31;50.00;75.40;;
76100;Laerm;64828;49.956;8.636;2024-02-15T00:55:51;67.45;36.06;76.00;;
76100;Laerm;64828;49.956;8.636;2024-02-15T00:56:07;51.13;35.78;59.32;;
76100;Laerm;64828;49.956;8.636;2024-02-15T00:56:23;47.47;35.36;58.52;;
76100;Laerm;64828;49.956;8.636;2024-02-15T00:56:39;50.13;37.14;59.41;;
76100;Laerm;64828;49.956;8.636;2024-02-15T00:56:55;56.58;43.00;68.06;;
76100;Laerm;64828;49.956;8.636;2024-02-15T00:57:10;57.08;40.29;71.57;;
76100;Laerm;64828;49.956;8.636;2024-02-15T00:57:26;64.53;43.32;73.36;;
76100;Laerm;64828;49.956;8.636;2024-02-15T00:57:42;63.87;46.95;72.51;;
76100;Laerm;64828;49.956;8.636;2024-02-15T00:57:57;56.89;52.51;66.20;;
76100;Laerm;64828;49.956;8.636;2024-02-15T00:58:13;52.94;38.38;65.64;;
76100;Laerm;64828;49.956;8.636;2024-02-15T00:58:30;52.26;38.08;59.66;;
76100;Laerm;64828;49.956;8.636;2024-02-15T00:58:45;53.07;36.67;59.31;;
76100;Laerm;64828;49.956;8.636;2024-02-15T00:59:01;58.67;38.59;71.38;;
76100;Laerm;64828;49.956;8.636;2024-02-15T00:59:16;60.31;37.85;72.22;;
76100;Laerm;64828;49.956;8.636;2024-02-15T00:59:32;51.06;35.17;60.64;;
76100;Laerm;64828;49.956;8.636;2024-02-15T00:59:51;50.73;36.19;66.26;;
76100;Laerm;64828;49.956;8.636;2024-02-15T01:00:08;44.74;35.97;57.45;;
76100;Laerm;64828;49.956;8.636;2024-02-15T01:00:24;60.08;36.74;72.18;;
76100;Laerm;64828;49.956;8.636;2024-02-15T01:00:41;51.12;37.24;58.14;;
76100;Laerm;64828;49.956;8.636;2024-02-15T01:00:56;38.88;35.84;44.13;;
76100;Laerm;64828;49.956;8.636;2024-02-15T01:01:12;43.09;36.70;48.73;;
76100;Laerm;64828;49.956;8.636;2024-02-15T01:01:28;47.10;40.12;57.77;;
76100;Laerm;64828;49.956;8.636;2024-02-15T01:01:44;63.36;44.25;73.13;;
76100;Laerm;64828;49.956;8.636;2024-02-15T01:02:00;66.94;52.49;73.15;;
76100;Laerm;64828;49.956;8.636;2024-02-15T01:02:15;51.83;36.29;58.52;;
76100;Laerm;64828;49.956;8.636;2024-02-15T01:02:31;56.35;42.83;67.86;;
76100;Laerm;64828;49.956;8.636;2024-02-15T01:02:46;69.19;55.62;73.79;;
76100;Laerm;64828;49.956;8.636;2024-02-15T01:03:03;67.93;54.75;73.48;;
76100;Laerm;64828;49.956;8.636;2024-02-15T01:03:19;56.90;41.81;70.73;;
76100;Laerm;64828;49.956;8.636;2024-02-15T01:03:35;52.41;36.72;68.55;;
76100;Laerm;64828;49.956;8.636;2024-02-15T01:03:51;39.19;37.44;40.98;;
76100;Laerm;64828;49.956;8.636;2024-02-15T01:04:07;39.29;37.66;41.19;;
76100;Laerm;64828;49.956;8.636;2024-02-15T01:04:22;40.40;35.71;46.56;;
76100;Laerm;64828;49.956;8.636;2024-02-15T01:04:39;44.48;37.45;49.92;;
76100;Laerm;64828;49.956;8.636;2024-02-15T01:04:54;43.66;36.37;49.55;;
76100;Laerm;64828;49.956;8.636;2024-02-15T01:05:13;66.09;35.79;74.50;;
76100;Laerm;64828;49.956;8.636;2024-02-15T01:05:30;73.33;65.02;76.76;;
76100;Laerm;64828;49.956;8.636;2024-02-15T01:05:46;73.98;63.84;78.05;;
76100;Laerm;64828;49.956;8.636;2024-02-15T01:06:02;78.28;71.21;83.23;;
76100;Laerm;64828;49.956;8.636;2024-02-15T01:06:18;80.15;77.78;82.98;;
76100;Laerm;64828;49.956;8.636;2024-02-15T01:06:34;81.73;75.43;85.38;;
76100;Laerm;64828;49.956;8.636;2024-02-15T01:06:49;81.77;76.32;85.37;;
76100;Laerm;64828;49.956;8.636;2024-02-15T01:07:05;80.24;78.09;82.92;;
76100;Laerm;64828;49.956;8.636;2024-02-15T01:07:21;80.18;77.89;83.15;;
76100;Laerm;64828;49.956;8.636;2024-02-15T01:07:36;81.98;76.06;85.64;;
76100;Laerm;64828;49.956;8.636;2024-02-15T01:07:52;82.67;75.53;86.14;;
76100;Laerm;64828;49.956;8.636;2024-02-15T01:08:07;82.54;75.14;85.68;;
76100;Laerm;64828;49.956;8.636;2024-02-15T01:08:24;81.58;75.31;85.94;;
76100;Laerm;64828;49.956;8.636;2024-02-15T01:08:40;81.54;75.09;84.96;;
76100;Laerm;64828;49.956;8.636;2024-02-15T01:08:55;80.76;76.17;83.60;;
76100;Laerm;64828;49.956;8.636;2024-02-15T01:09:12;79.91;77.46;82.91;;
76100;Laerm;64828;49.956;8.636;2024-02-15T01:09:29;81.97;75.89;85.22;;
76100;Laerm;64828;49.956;8.636;2024-02-15T01:09:45;81.25;76.79;84.07;;
76100;Laerm;64828;49.956;8.636;2024-02-15T01:10:01;81.78;75.39;85.06;;
76100;Laerm;64828;49.956;8.636;2024-02-15T01:10:16;80.82;76.13;84.63;;
76100;Laerm;64828;49.956;8.636;2024-02-15T01:10:32;77.95;70.50;81.10;;
76100;Laerm;64828;49.956;8.636;2024-02-15T01:10:49;78.63;72.22;81.43;;
76100;Laerm;64828;49.956;8.636;2024-02-15T01:11:05;80.53;78.08;84.12;;
76100;Laerm;64828;49.956;8.636;2024-02-15T01:11:21;80.09;76.42;84.06;;
76100;Laerm;64828;49.956;8.636;2024-02-15T01:11:37;80.33;77.44;82.73;;
76100;Laerm;64828;49.956;8.636;2024-02-15T01:11:52;79.71;77.74;82.85;;
76100;Laerm;64828;49.956;8.636;2024-02-15T01:12:08;81.44;75.01;84.56;;
76100;Laerm;64828;49.956;8.636;2024-02-15T01:12:25;82.37;75.25;85.99;;
76100;Laerm;64828;49.956;8.636;2024-02-15T01:12:41;80.42;78.09;83.23;;
76100;Laerm;64828;49.956;8.636;2024-02-15T01:12:56;82.53;75.37;86.12;;
76100;Laerm;64828;49.956;8.636;2024-02-15T01:13:12;83.39;75.80;86.59;;
76100;Laerm;64828;49.956;8.636;2024-02-15T01:13:27;82.62;75.49;86.17;;
76100;Laerm;64828;49.956;8.636;2024-02-15T01:13:43;83.69;76.44;86.64;;
76100;Laerm;64828;49.956;8.636;2024-02-15T01:13:59;84.22;75.87;86.80;;
76100;Laerm;64828;49.956;8.636;2024-02-15T01:14:15;84.50;77.84;86.93;;
76100;Laerm;64828;49.956;8.636;2024-02-15T01:14:31;84.04;76.02;86.91;;
76100;Laerm;64828;49.956;8.636;2024-02-15T01:14:47;83.80;74.89;86.80;;
76100;Laerm;64828;49.956;8.636;2024-02-15T01:15:03;83.96;76.54;86.38;;
76100;Laerm;64828;49.956;8.636;2024-02-15T01:15:19;83.85;75.34;86.84;;
76100;Laerm;64828;49.956;8.636;2024-02-15T01:15:36;84.20;81.00;86.82;;
76100;Laerm;64828;49.956;8.636;2024-02-15T01:15:52;84.46;77.90;86.96;;
76100;Laerm;64828;49.956;8.636;2024-02-15T01:16:08;84.58;80.02;87.34;;
76100;Laerm;64828;49.956;8.636;2024-02-15T01:16:24;82.26;75.38;86.73;;
76100;Laerm;64828;49.956;8.636;2024-02-15T01:16:40;81.98;33.60;86.74;;
76100;Laerm;64828;49.956;8.636;2024-02-15T01:16:56;83.54;75.35;86.80;;
76100;Laerm;64828;49.956;8.636;2024-02-15T01:17:12;83.21;75.56;86.53;;
76100;Laerm;64828;49.956;8.636;2024-02-15T01:17:27;83.99;76.63;87.19;;
76100;Laerm;64828;49.956;8.636;2024-02-15T01:17:43;84.08;75.98;86.72;;
76100;Laerm;64828;49.956;8.636;2024-02-15T01:17:58;83.22;76.12;86.37;;
76100;Laerm;64828;49.956;8.636;2024-02-15T01:18:14;82.92;76.66;86.68;;
76100;Laerm;64828;49.956;8.636;2024-02-15T01:18:30;84.48;81.52;86.91;;
76100;Laerm;64828;49.956;8.636;2024-02-15T01:18:47;84.31;80.17;86.66;;
76100;Laerm;64828;49.956;8.636;2024-02-15T01:19:03;83.35;55.75;86.68;;
76100;Laerm;64828;49.956;8.636;2024-02-15T01:19:18;83.78;76.57;86.56;;
76100;Laerm;64828;49.956;8.636;2024-02-15T01:19:34;82.43;77.35;85.36;;
76100;Laerm;64828;49.956;8.636;2024-02-15T01:19:50;81.10;78.14;83.82;;
76100;Laerm;64828;49.956;8.636;2024-02-15T01:20:06;81.75;78.22;85.82;;
76100;Laerm;64828;49.956;8.636;2024-02-15T01:20:22;83.50;76.01;86.24;;
76100;Laerm;64828;49.956;8.636;2024-02-15T01:20:38;83.38;75.64;86.62;;
76100;Laerm;64828;49.956;8.636;2024-02-15T01:20:54;84.04;76.34;86.65;;
76100;Laerm;64828;49.956;8.636;2024-02-15T01:21:09;83.61;79.33;86.66;;
76100;Laerm;64828;49.956;8.636;2024-02-15T01:21:26;83.56;75.68;86.82;;
76100;Laerm;64828;49.956;8.636;2024-02-15T01:21:42;83.55;75.74;86.85;;
76100;Laerm;64828;49.956;8.636;2024-02-15T01:21:59;83.36;76.41;86.43;;
76100;Laerm;64828;49.956;8.636;2024-02-15T01:22:15;83.48;75.87;86.55;;
76100;Laerm;64828;49.956;8.636;2024-02-15T01:22:31;81.74;76.17;86.92;;
76100;Laerm;64828;49.956;8.636;2024-02-15T01:22:47;80.61;77.92;83.63;;
76100;Laerm;64828;49.956;8.636;2024-02-15T01:23:02;82.15;78.77;85.11;;
76100;Laerm;64828;49.956;8.636;2024-02-15T01:23:20;83.75;76.38;86.70;;
76100;Laerm;64828;49.956;8.636;2024-02-15T01:23:37;81.64;78.39;84.84;;
76100;Laerm;64828;49.956;8.636;2024-02-15T01:23:53;82.52;77.79;85.31;;
76100;Laerm;64828;49.956;8.636;2024-02-15T01:24:11;84.15;79.82;86.74;;
76100;Laerm;64828;49.956;8.636;2024-02-15T01:24:27;83.05;78.61;86.12;;
76100;Laerm;64828;49.956;8.636;2024-02-15T01:24:43;81.11;77.91;84.21;;
76100;Laerm;64828;49.956;8.636;2024-02-15T01:24:58;81.94;78.63;84.71;;
76100;Laerm;64828;49.956;8.636;2024-02-15T01:25:14;81.59;78.74;84.44;;
76100;Laerm;64828;49.956;8.636;2024-02-15T01:25:31;80.50;77.48;83.22;;
76100;Laerm;64828;49.956;8.636;2024-02-15T01:25:46;80.84;77.24;84.39;;
76100;Laerm;64828;49.956;8.636;2024-02-15T01:26:02;81.10;78.20;84.58;;
76100;Laerm;64828;49.956;8.636;2024-02-15T01:26:18;80.16;76.07;84.16;;
76100;Laerm;64828;49.956;8.636;2024-02-15T01:26:33;80.61;76.78;83.42;;
76100;Laerm;64828;49.956;8.636;2024-02-15T01:26:50;80.63;78.21;83.22;;
76100;Laerm;64828;49.956;8.636;2024-02-15T01:27:05;79.65;77.10;81.81;;
76100;Laerm;64828;49.956;8.636;2024-02-15T01:27:22;78.78;75.56;81.05;;
76100;Laerm;64828;49.956;8.636;2024-02-15T01:27:38;78.70;76.19;80.74;;
76100;Laerm;64828;49.956;8.636;2024-02-15T01:27:54;78.40;75.19;80.75;;
76100;Laerm;64828;49.956;8.636;2024-02-15T01:28:10;77.65;74.14;80.13;;
76100;Laerm;64828;49.956;8.636;2024-02-15T01:28:26;78.05;74.72;80.55;;
76100;Laerm;64828;49.956;8.636;2024-02-15T01:28:42;76.90;73.51;79.26;;
76100;Laerm;64828;49.956;8.636;2024-02-15T01:28:58;75.17;71.16;77.65;;
76100;Laerm;64828;49.956;8.636;2024-02-15T01:29:14;76.36;73.20;81.82;;
76100;Laerm;64828;49.956;8.636;2024-02-15T01:29:29;76.18;73.29;79.60;;
76100;Laerm;64828;49.956;8.636;2024-02-15T01:29:45;74.89;72.68;77.49;;